sensor_id;sensor_type;location;lat;lon;timestamp;P1;durP1;ratioP1;P2;durP2;ratioP2
48881;SDS011;57063;51.406;-2.402;2024-03-25T00:00:27;12.85;;;4.10;;
48881;SDS011;57063;51.406;-2.402;2024-03-25T00:02:52;13.50;;;3.45;;
48881;SDS011;57063;51.406;-2.402;2024-03-25T00:05:17;10.40;;;3.47;;
48881;SDS011;57063;51.406;-2.402;2024-03-25T00:07:47;8.50;;;3.35;;
48881;SDS011;57063;51.406;-2.402;2024-03-25T00:10:12;13.35;;;4.32;;
48881;SDS011;57063;51.406;-2.402;2024-03-25T00:12:38;11.97;;;3.60;;
48881;SDS011;57063;51.406;-2.402;2024-03-25T00:15:03;13.85;;;3.40;;
48881;SDS011;57063;51.406;-2.402;2024-03-25T00:17:29;11.35;;;2.90;;
48881;SDS011;57063;51.406;-2.402;2024-03-25T00:19:54;16.60;;;4.22;;
48881;SDS011;57063;51.406;-2.402;2024-03-25T00:22:20;12.55;;;3.50;;
48881;SDS011;57063;51.406;-2.402;2024-03-25T00:24:46;10.73;;;2.80;;
48881;SDS011;57063;51.406;-2.402;2024-03-25T00:27:11;10.50;;;3.00;;
48881;SDS011;57063;51.406;-2.402;2024-03-25T00:29:36;15.30;;;3.83;;
48881;SDS011;57063;51.406;-2.402;2024-03-25T00:32:02;13.73;;;3.13;;
48881;SDS011;57063;51.406;-2.402;2024-03-25T00:34:27;15.15;;;3.85;;
48881;SDS011;57063;51.406;-2.402;2024-03-25T00:36:52;11.33;;;3.60;;
48881;SDS011;57063;51.406;-2.402;2024-03-25T00:39:18;15.40;;;4.28;;
48881;SDS011;57063;51.406;-2.402;2024-03-25T00:41:44;6.57;;;3.03;;
48881;SDS011;57063;51.406;-2.402;2024-03-25T00:44:09;10.15;;;3.30;;
48881;SDS011;57063;51.406;-2.402;2024-03-25T00:46:35;11.98;;;2.92;;
48881;SDS011;57063;51.406;-2.402;2024-03-25T00:49:00;9.02;;;2.90;;
48881;SDS011;57063;51.406;-2.402;2024-03-25T00:51:26;13.02;;;3.63;;
48881;SDS011;57063;51.406;-2.402;2024-03-25T00:53:51;12.70;;;3.30;;
48881;SDS011;57063;51.406;-2.402;2024-03-25T00:56:16;14.93;;;3.20;;
48881;SDS011;57063;51.406;-2.402;2024-03-25T00:58:41;16.30;;;4.20;;
48881;SDS011;57063;51.406;-2.402;2024-03-25T01:01:06;17.42;;;4.25;;
48881;SDS011;57063;51.406;-2.402;2024-03-25T01:03:32;10.65;;;3.38;;
48881;SDS011;57063;51.406;-2.402;2024-03-25T01:05:57;12.73;;;4.03;;
48881;SDS011;57063;51.406;-2.402;2024-03-25T01:08:22;7.63;;;2.85;;
48881;SDS011;57063;51.406;-2.402;2024-03-25T01:10:47;13.53;;;3.67;;
48881;SDS011;57063;51.406;-2.402;2024-03-25T01:13:13;9.35;;;3.40;;
48881;SDS011;57063;51.406;-2.402;2024-03-25T01:15:38;11.57;;;3.30;;
48881;SDS011;57063;51.406;-2.402;2024-03-25T01:18:03;15.67;;;3.57;;
48881;SDS011;57063;51.406;-2.402;2024-03-25T01:20:28;9.90;;;3.55;;
48881;SDS011;57063;51.406;-2.402;2024-03-25T01:22:53;10.87;;;2.83;;
48881;SDS011;57063;51.406;-2.402;2024-03-25T01:25:19;11.05;;;3.55;;
48881;SDS011;57063;51.406;-2.402;2024-03-25T01:27:45;12.55;;;3.42;;
48881;SDS011;57063;51.406;-2.402;2024-03-25T01:30:10;10.27;;;3.27;;
48881;SDS011;57063;51.406;-2.402;2024-03-25T01:32:35;23.20;;;3.63;;
48881;SDS011;57063;51.406;-2.402;2024-03-25T01:35:01;10.73;;;3.35;;
48881;SDS011;57063;51.406;-2.402;2024-03-25T01:37:26;12.40;;;3.15;;
48881;SDS011;57063;51.406;-2.402;2024-03-25T01:39:51;11.73;;;3.65;;
48881;SDS011;57063;51.406;-2.402;2024-03-25T01:42:16;10.65;;;3.40;;
48881;SDS011;57063;51.406;-2.402;2024-03-25T01:44:42;14.32;;;3.03;;
48881;SDS011;57063;51.406;-2.402;2024-03-25T01:47:07;10.70;;;2.70;;
48881;SDS011;57063;51.406;-2.402;2024-03-25T01:49:32;14.05;;;3.40;;
48881;SDS011;57063;51.406;-2.402;2024-03-25T01:51:57;16.85;;;2.83;;
48881;SDS011;57063;51.406;-2.402;2024-03-25T01:54:23;11.27;;;3.00;;
48881;SDS011;57063;51.406;-2.402;2024-03-25T01:56:48;8.18;;;2.35;;
48881;SDS011;57063;51.406;-2.402;2024-03-25T01:59:15;13.05;;;5.25;;
48881;SDS011;57063;51.406;-2.402;2024-03-25T02:01:41;12.40;;;3.03;;
48881;SDS011;57063;51.406;-2.402;2024-03-25T02:04:07;15.68;;;2.97;;
48881;SDS011;57063;51.406;-2.402;2024-03-25T02:06:32;24.00;;;4.28;;
48881;SDS011;57063;51.406;-2.402;2024-03-25T02:08:58;10.07;;;3.25;;
48881;SDS011;57063;51.406;-2.402;2024-03-25T02:11:23;13.05;;;2.83;;
48881;SDS011;57063;51.406;-2.402;2024-03-25T02:13:49;15.10;;;3.15;;
48881;SDS011;57063;51.406;-2.402;2024-03-25T02:16:14;8.52;;;2.97;;
48881;SDS011;57063;51.406;-2.402;2024-03-25T02:18:40;11.00;;;3.00;;
48881;SDS011;57063;51.406;-2.402;2024-03-25T02:21:05;12.90;;;3.00;;
48881;SDS011;57063;51.406;-2.402;2024-03-25T02:23:30;16.15;;;3.40;;
48881;SDS011;57063;51.406;-2.402;2024-03-25T02:25:56;10.95;;;3.42;;
48881;SDS011;57063;51.406;-2.402;2024-03-25T02:28:22;15.07;;;3.65;;
48881;SDS011;57063;51.406;-2.402;2024-03-25T02:30:47;16.03;;;3.67;;
48881;SDS011;57063;51.406;-2.402;2024-03-25T02:33:13;10.67;;;3.40;;
48881;SDS011;57063;51.406;-2.402;2024-03-25T02:35:39;11.57;;;3.00;;
48881;SDS011;57063;51.406;-2.402;2024-03-25T02:38:05;17.52;;;3.67;;
48881;SDS011;57063;51.406;-2.402;2024-03-25T02:40:31;13.30;;;3.25;;
48881;SDS011;57063;51.406;-2.402;2024-03-25T02:42:56;13.48;;;4.15;;
48881;SDS011;57063;51.406;-2.402;2024-03-25T02:45:21;17.50;;;4.47;;
48881;SDS011;57063;51.406;-2.402;2024-03-25T02:47:47;6.70;;;3.20;;
48881;SDS011;57063;51.406;-2.402;2024-03-25T02:50:12;17.25;;;6.28;;
48881;SDS011;57063;51.406;-2.402;2024-03-25T02:52:37;13.95;;;3.40;;
48881;SDS011;57063;51.406;-2.402;2024-03-25T02:55:03;11.80;;;3.67;;
48881;SDS011;57063;51.406;-2.402;2024-03-25T02:57:28;12.50;;;3.78;;
48881;SDS011;57063;51.406;-2.402;2024-03-25T02:59:53;12.73;;;3.17;;
48881;SDS011;57063;51.406;-2.402;2024-03-25T03:02:18;16.10;;;3.60;;
48881;SDS011;57063;51.406;-2.402;2024-03-25T03:04:44;16.98;;;3.50;;
48881;SDS011;57063;51.406;-2.402;2024-03-25T03:07:09;13.67;;;3.80;;
48881;SDS011;57063;51.406;-2.402;2024-03-25T03:09:34;10.98;;;2.90;;
48881;SDS011;57063;51.406;-2.402;2024-03-25T03:11:59;12.77;;;3.53;;
48881;SDS011;57063;51.406;-2.402;2024-03-25T03:14:24;14.50;;;3.30;;
48881;SDS011;57063;51.406;-2.402;2024-03-25T03:16:50;7.43;;;2.95;;
48881;SDS011;57063;51.406;-2.402;2024-03-25T03:19:19;8.98;;;3.15;;
48881;SDS011;57063;51.406;-2.402;2024-03-25T03:21:44;9.33;;;3.43;;
48881;SDS011;57063;51.406;-2.402;2024-03-25T03:24:09;11.07;;;2.67;;
48881;SDS011;57063;51.406;-2.402;2024-03-25T03:26:35;18.37;;;5.70;;
48881;SDS011;57063;51.406;-2.402;2024-03-25T03:29:00;13.33;;;4.30;;
48881;SDS011;57063;51.406;-2.402;2024-03-25T03:31:25;9.23;;;3.13;;
48881;SDS011;57063;51.406;-2.402;2024-03-25T03:33:51;10.68;;;3.25;;
48881;SDS011;57063;51.406;-2.402;2024-03-25T03:36:17;10.87;;;3.33;;
48881;SDS011;57063;51.406;-2.402;2024-03-25T03:38:42;17.15;;;3.72;;
48881;SDS011;57063;51.406;-2.402;2024-03-25T03:41:07;13.32;;;3.30;;
48881;SDS011;57063;51.406;-2.402;2024-03-25T03:43:33;9.30;;;3.77;;
48881;SDS011;57063;51.406;-2.402;2024-03-25T03:45:58;15.98;;;4.35;;
48881;SDS011;57063;51.406;-2.402;2024-03-25T03:48:23;11.48;;;3.53;;
48881;SDS011;57063;51.406;-2.402;2024-03-25T03:50:48;16.17;;;3.63;;
48881;SDS011;57063;51.406;-2.402;2024-03-25T03:53:14;16.70;;;4.70;;
48881;SDS011;57063;51.406;-2.402;2024-03-25T03:55:39;8.97;;;3.13;;
48881;SDS011;57063;51.406;-2.402;2024-03-25T03:58:04;13.57;;;3.40;;
48881;SDS011;57063;51.406;-2.402;2024-03-25T04:00:29;11.88;;;3.42;;
48881;SDS011;57063;51.406;-2.402;2024-03-25T04:02:58;13.52;;;4.85;;
48881;SDS011;57063;51.406;-2.402;2024-03-25T04:05:23;8.85;;;3.05;;
48881;SDS011;57063;51.406;-2.402;2024-03-25T04:07:48;13.52;;;3.78;;
48881;SDS011;57063;51.406;-2.402;2024-03-25T04:10:14;9.57;;;3.50;;
48881;SDS011;57063;51.406;-2.402;2024-03-25T04:12:39;13.27;;;3.67;;
48881;SDS011;57063;51.406;-2.402;2024-03-25T04:15:04;11.35;;;4.00;;
48881;SDS011;57063;51.406;-2.402;2024-03-25T04:17:30;10.82;;;3.40;;
48881;SDS011;57063;51.406;-2.402;2024-03-25T04:19:58;15.15;;;3.08;;
48881;SDS011;57063;51.406;-2.402;2024-03-25T04:22:25;9.90;;;3.90;;
48881;SDS011;57063;51.406;-2.402;2024-03-25T04:24:50;12.20;;;4.40;;
48881;SDS011;57063;51.406;-2.402;2024-03-25T04:27:15;23.47;;;4.07;;
48881;SDS011;57063;51.406;-2.402;2024-03-25T04:29:40;16.83;;;4.82;;
48881;SDS011;57063;51.406;-2.402;2024-03-25T04:32:05;10.63;;;4.03;;
48881;SDS011;57063;51.406;-2.402;2024-03-25T04:34:31;14.97;;;4.40;;
48881;SDS011;57063;51.406;-2.402;2024-03-25T04:36:56;11.07;;;4.43;;
48881;SDS011;57063;51.406;-2.402;2024-03-25T04:39:21;15.05;;;4.55;;
48881;SDS011;57063;51.406;-2.402;2024-03-25T04:41:47;12.13;;;4.78;;
48881;SDS011;57063;51.406;-2.402;2024-03-25T04:44:12;14.10;;;6.18;;
48881;SDS011;57063;51.406;-2.402;2024-03-25T04:46:37;13.97;;;5.07;;
48881;SDS011;57063;51.406;-2.402;2024-03-25T04:49:02;12.05;;;4.25;;
48881;SDS011;57063;51.406;-2.402;2024-03-25T04:51:28;12.27;;;4.43;;
48881;SDS011;57063;51.406;-2.402;2024-03-25T04:53:53;18.00;;;5.23;;
48881;SDS011;57063;51.406;-2.402;2024-03-25T04:56:18;10.90;;;4.57;;
48881;SDS011;57063;51.406;-2.402;2024-03-25T04:58:43;12.68;;;5.07;;
48881;SDS011;57063;51.406;-2.402;2024-03-25T05:01:09;17.77;;;5.33;;
48881;SDS011;57063;51.406;-2.402;2024-03-25T05:03:34;12.13;;;5.10;;
48881;SDS011;57063;51.406;-2.402;2024-03-25T05:05:59;13.07;;;4.90;;
48881;SDS011;57063;51.406;-2.402;2024-03-25T05:08:24;11.57;;;4.50;;
48881;SDS011;57063;51.406;-2.402;2024-03-25T05:10:49;13.98;;;5.28;;
48881;SDS011;57063;51.406;-2.402;2024-03-25T05:13:15;20.60;;;5.70;;
48881;SDS011;57063;51.406;-2.402;2024-03-25T05:15:40;16.70;;;5.38;;
48881;SDS011;57063;51.406;-2.402;2024-03-25T05:18:05;11.90;;;5.50;;
48881;SDS011;57063;51.406;-2.402;2024-03-25T05:20:30;12.48;;;5.45;;
48881;SDS011;57063;51.406;-2.402;2024-03-25T05:22:56;13.83;;;5.70;;
48881;SDS011;57063;51.406;-2.402;2024-03-25T05:25:21;11.90;;;5.37;;
48881;SDS011;57063;51.406;-2.402;2024-03-25T05:27:53;13.93;;;5.65;;
48881;SDS011;57063;51.406;-2.402;2024-03-25T05:30:18;14.80;;;4.80;;
48881;SDS011;57063;51.406;-2.402;2024-03-25T05:32:44;12.02;;;6.10;;
48881;SDS011;57063;51.406;-2.402;2024-03-25T05:35:09;9.90;;;5.60;;
48881;SDS011;57063;51.406;-2.402;2024-03-25T05:37:35;13.73;;;6.43;;
48881;SDS011;57063;51.406;-2.402;2024-03-25T05:40:01;7.57;;;4.90;;
48881;SDS011;57063;51.406;-2.402;2024-03-25T05:42:26;9.18;;;4.60;;
48881;SDS011;57063;51.406;-2.402;2024-03-25T05:44:51;14.97;;;5.57;;
48881;SDS011;57063;51.406;-2.402;2024-03-25T05:47:16;12.38;;;5.22;;
48881;SDS011;57063;51.406;-2.402;2024-03-25T05:49:42;9.43;;;4.38;;
48881;SDS011;57063;51.406;-2.402;2024-03-25T05:52:07;11.70;;;4.93;;
48881;SDS011;57063;51.406;-2.402;2024-03-25T05:54:32;9.40;;;5.47;;
48881;SDS011;57063;51.406;-2.402;2024-03-25T05:56:57;11.35;;;5.25;;
48881;SDS011;57063;51.406;-2.402;2024-03-25T05:59:23;13.03;;;4.70;;
48881;SDS011;57063;51.406;-2.402;2024-03-25T06:01:48;11.00;;;5.40;;
48881;SDS011;57063;51.406;-2.402;2024-03-25T06:04:13;14.87;;;4.80;;
48881;SDS011;57063;51.406;-2.402;2024-03-25T06:06:39;54.50;;;7.13;;
48881;SDS011;57063;51.406;-2.402;2024-03-25T06:09:04;13.70;;;5.50;;
48881;SDS011;57063;51.406;-2.402;2024-03-25T06:11:30;12.70;;;5.63;;
48881;SDS011;57063;51.406;-2.402;2024-03-25T06:13:56;9.00;;;5.05;;
48881;SDS011;57063;51.406;-2.402;2024-03-25T06:16:21;11.17;;;4.97;;
48881;SDS011;57063;51.406;-2.402;2024-03-25T06:18:46;6.07;;;4.38;;
48881;SDS011;57063;51.406;-2.402;2024-03-25T06:21:11;12.70;;;4.30;;
48881;SDS011;57063;51.406;-2.402;2024-03-25T06:23:37;9.32;;;5.30;;
48881;SDS011;57063;51.406;-2.402;2024-03-25T06:26:02;10.53;;;4.27;;
48881;SDS011;57063;51.406;-2.402;2024-03-25T06:28:28;11.40;;;5.28;;
48881;SDS011;57063;51.406;-2.402;2024-03-25T06:30:53;11.57;;;4.57;;
48881;SDS011;57063;51.406;-2.402;2024-03-25T06:33:37;7.07;;;3.45;;
48881;SDS011;57063;51.406;-2.402;2024-03-25T06:36:21;8.00;;;4.55;;
48881;SDS011;57063;51.406;-2.402;2024-03-25T06:38:46;7.18;;;3.60;;
48881;SDS011;57063;51.406;-2.402;2024-03-25T06:41:11;9.68;;;4.10;;
48881;SDS011;57063;51.406;-2.402;2024-03-25T06:43:37;7.38;;;4.47;;
48881;SDS011;57063;51.406;-2.402;2024-03-25T06:46:05;10.48;;;4.03;;
48881;SDS011;57063;51.406;-2.402;2024-03-25T06:48:31;8.32;;;4.10;;
48881;SDS011;57063;51.406;-2.402;2024-03-25T06:50:57;15.43;;;4.75;;
48881;SDS011;57063;51.406;-2.402;2024-03-25T06:53:22;9.15;;;3.83;;
48881;SDS011;57063;51.406;-2.402;2024-03-25T06:56:06;5.07;;;3.20;;
48881;SDS011;57063;51.406;-2.402;2024-03-25T06:58:31;8.15;;;2.53;;
48881;SDS011;57063;51.406;-2.402;2024-03-25T07:01:03;8.05;;;3.28;;
48881;SDS011;57063;51.406;-2.402;2024-03-25T07:03:28;11.40;;;3.97;;
48881;SDS011;57063;51.406;-2.402;2024-03-25T07:05:53;9.03;;;2.57;;
48881;SDS011;57063;51.406;-2.402;2024-03-25T07:08:20;9.10;;;2.80;;
48881;SDS011;57063;51.406;-2.402;2024-03-25T07:10:45;6.40;;;2.47;;
48881;SDS011;57063;51.406;-2.402;2024-03-25T07:13:11;6.35;;;2.95;;
48881;SDS011;57063;51.406;-2.402;2024-03-25T07:15:36;11.23;;;2.83;;
48881;SDS011;57063;51.406;-2.402;2024-03-25T07:18:01;10.90;;;2.80;;
48881;SDS011;57063;51.406;-2.402;2024-03-25T07:20:27;9.38;;;2.75;;
48881;SDS011;57063;51.406;-2.402;2024-03-25T07:22:52;15.88;;;2.65;;
48881;SDS011;57063;51.406;-2.402;2024-03-25T07:25:20;6.50;;;2.00;;
48881;SDS011;57063;51.406;-2.402;2024-03-25T07:27:45;10.32;;;2.72;;
48881;SDS011;57063;51.406;-2.402;2024-03-25T07:30:10;10.43;;;2.53;;
48881;SDS011;57063;51.406;-2.402;2024-03-25T07:32:36;11.00;;;3.05;;
48881;SDS011;57063;51.406;-2.402;2024-03-25T07:35:01;13.52;;;2.85;;
48881;SDS011;57063;51.406;-2.402;2024-03-25T07:37:26;15.15;;;3.25;;
48881;SDS011;57063;51.406;-2.402;2024-03-25T07:39:51;9.53;;;2.33;;
48881;SDS011;57063;51.406;-2.402;2024-03-25T07:42:17;15.00;;;3.35;;
48881;SDS011;57063;51.406;-2.402;2024-03-25T07:44:43;12.82;;;2.25;;
48881;SDS011;57063;51.406;-2.402;2024-03-25T07:47:08;18.10;;;2.70;;
48881;SDS011;57063;51.406;-2.402;2024-03-25T07:49:33;9.57;;;2.70;;
48881;SDS011;57063;51.406;-2.402;2024-03-25T07:51:59;26.58;;;4.03;;
48881;SDS011;57063;51.406;-2.402;2024-03-25T07:54:24;16.85;;;5.30;;
48881;SDS011;57063;51.406;-2.402;2024-03-25T07:56:51;7.82;;;2.53;;
48881;SDS011;57063;51.406;-2.402;2024-03-25T07:59:16;13.40;;;2.58;;
48881;SDS011;57063;51.406;-2.402;2024-03-25T08:01:42;15.40;;;2.72;;
48881;SDS011;57063;51.406;-2.402;2024-03-25T08:04:08;9.90;;;2.72;;
48881;SDS011;57063;51.406;-2.402;2024-03-25T08:06:33;16.90;;;4.18;;
48881;SDS011;57063;51.406;-2.402;2024-03-25T08:08:59;21.13;;;3.03;;
48881;SDS011;57063;51.406;-2.402;2024-03-25T08:11:24;14.20;;;2.75;;
48881;SDS011;57063;51.406;-2.402;2024-03-25T08:13:49;26.30;;;3.57;;
48881;SDS011;57063;51.406;-2.402;2024-03-25T08:16:14;17.40;;;2.63;;
48881;SDS011;57063;51.406;-2.402;2024-03-25T08:18:40;14.27;;;3.03;;
48881;SDS011;57063;51.406;-2.402;2024-03-25T08:21:05;14.23;;;2.67;;
48881;SDS011;57063;51.406;-2.402;2024-03-25T08:23:30;15.60;;;2.90;;
48881;SDS011;57063;51.406;-2.402;2024-03-25T08:25:55;16.70;;;2.80;;
48881;SDS011;57063;51.406;-2.402;2024-03-25T08:28:20;12.65;;;2.63;;
48881;SDS011;57063;51.406;-2.402;2024-03-25T08:30:46;14.02;;;3.08;;
48881;SDS011;57063;51.406;-2.402;2024-03-25T08:33:11;14.90;;;2.47;;
48881;SDS011;57063;51.406;-2.402;2024-03-25T08:35:37;24.17;;;4.87;;
48881;SDS011;57063;51.406;-2.402;2024-03-25T08:38:03;19.35;;;3.00;;
48881;SDS011;57063;51.406;-2.402;2024-03-25T08:40:28;8.45;;;2.58;;
48881;SDS011;57063;51.406;-2.402;2024-03-25T08:42:53;17.83;;;2.77;;
48881;SDS011;57063;51.406;-2.402;2024-03-25T08:45:19;15.67;;;2.63;;
48881;SDS011;57063;51.406;-2.402;2024-03-25T08:47:44;9.73;;;2.70;;
48881;SDS011;57063;51.406;-2.402;2024-03-25T08:50:09;12.60;;;2.43;;
48881;SDS011;57063;51.406;-2.402;2024-03-25T08:52:34;14.80;;;4.03;;
48881;SDS011;57063;51.406;-2.402;2024-03-25T08:54:59;13.77;;;2.20;;
48881;SDS011;57063;51.406;-2.402;2024-03-25T08:57:25;15.43;;;2.60;;
48881;SDS011;57063;51.406;-2.402;2024-03-25T08:59:50;13.27;;;2.63;;
48881;SDS011;57063;51.406;-2.402;2024-03-25T09:02:15;15.82;;;3.67;;
48881;SDS011;57063;51.406;-2.402;2024-03-25T09:04:40;14.03;;;2.63;;
48881;SDS011;57063;51.406;-2.402;2024-03-25T09:07:06;17.13;;;2.77;;
48881;SDS011;57063;51.406;-2.402;2024-03-25T09:09:31;23.10;;;3.47;;
48881;SDS011;57063;51.406;-2.402;2024-03-25T09:12:15;15.93;;;2.70;;
48881;SDS011;57063;51.406;-2.402;2024-03-25T09:14:40;19.43;;;4.03;;
48881;SDS011;57063;51.406;-2.402;2024-03-25T09:17:05;18.00;;;3.53;;
48881;SDS011;57063;51.406;-2.402;2024-03-25T09:19:30;15.13;;;3.22;;
48881;SDS011;57063;51.406;-2.402;2024-03-25T09:21:55;13.63;;;2.77;;
48881;SDS011;57063;51.406;-2.402;2024-03-25T09:24:21;10.73;;;2.30;;
48881;SDS011;57063;51.406;-2.402;2024-03-25T09:26:46;19.05;;;3.75;;
48881;SDS011;57063;51.406;-2.402;2024-03-25T09:29:14;17.10;;;3.58;;
48881;SDS011;57063;51.406;-2.402;2024-03-25T09:31:39;12.23;;;2.85;;
48881;SDS011;57063;51.406;-2.402;2024-03-25T09:34:05;15.00;;;3.33;;
48881;SDS011;57063;51.406;-2.402;2024-03-25T09:36:30;15.65;;;3.75;;
48881;SDS011;57063;51.406;-2.402;2024-03-25T09:38:55;19.02;;;3.67;;
48881;SDS011;57063;51.406;-2.402;2024-03-25T09:41:20;11.90;;;3.97;;
48881;SDS011;57063;51.406;-2.402;2024-03-25T09:43:53;18.08;;;3.05;;
48881;SDS011;57063;51.406;-2.402;2024-03-25T09:46:19;28.48;;;4.72;;
48881;SDS011;57063;51.406;-2.402;2024-03-25T09:48:45;11.93;;;2.50;;
48881;SDS011;57063;51.406;-2.402;2024-03-25T09:51:10;14.60;;;2.80;;
48881;SDS011;57063;51.406;-2.402;2024-03-25T09:53:35;15.65;;;3.00;;
48881;SDS011;57063;51.406;-2.402;2024-03-25T09:56:01;10.48;;;2.33;;
48881;SDS011;57063;51.406;-2.402;2024-03-25T09:58:26;11.63;;;2.15;;
48881;SDS011;57063;51.406;-2.402;2024-03-25T10:00:52;13.27;;;2.33;;
48881;SDS011;57063;51.406;-2.402;2024-03-25T10:03:18;14.05;;;2.42;;
48881;SDS011;57063;51.406;-2.402;2024-03-25T10:05:43;12.52;;;2.95;;
48881;SDS011;57063;51.406;-2.402;2024-03-25T10:08:08;16.42;;;4.43;;
48881;SDS011;57063;51.406;-2.402;2024-03-25T10:10:34;14.40;;;2.50;;
48881;SDS011;57063;51.406;-2.402;2024-03-25T10:13:02;12.90;;;2.55;;
48881;SDS011;57063;51.406;-2.402;2024-03-25T10:15:27;13.32;;;2.60;;
48881;SDS011;57063;51.406;-2.402;2024-03-25T10:17:52;22.33;;;2.58;;
48881;SDS011;57063;51.406;-2.402;2024-03-25T10:20:17;14.43;;;2.80;;
48881;SDS011;57063;51.406;-2.402;2024-03-25T10:22:43;16.05;;;2.15;;
48881;SDS011;57063;51.406;-2.402;2024-03-25T10:25:28;16.27;;;2.05;;
48881;SDS011;57063;51.406;-2.402;2024-03-25T10:30:19;12.40;;;2.40;;
48881;SDS011;57063;51.406;-2.402;2024-03-25T10:32:44;16.30;;;3.28;;
48881;SDS011;57063;51.406;-2.402;2024-03-25T10:35:09;17.07;;;2.33;;
48881;SDS011;57063;51.406;-2.402;2024-03-25T10:37:34;9.82;;;1.50;;
48881;SDS011;57063;51.406;-2.402;2024-03-25T10:40:00;10.00;;;2.00;;
48881;SDS011;57063;51.406;-2.402;2024-03-25T10:42:26;10.30;;;1.60;;
48881;SDS011;57063;51.406;-2.402;2024-03-25T10:44:52;12.18;;;1.63;;
48881;SDS011;57063;51.406;-2.402;2024-03-25T10:47:21;9.45;;;1.52;;
48881;SDS011;57063;51.406;-2.402;2024-03-25T10:49:55;22.52;;;2.42;;
48881;SDS011;57063;51.406;-2.402;2024-03-25T10:52:21;8.88;;;1.75;;
48881;SDS011;57063;51.406;-2.402;2024-03-25T10:54:47;10.15;;;1.85;;
48881;SDS011;57063;51.406;-2.402;2024-03-25T10:57:12;11.55;;;1.52;;
48881;SDS011;57063;51.406;-2.402;2024-03-25T10:59:42;10.40;;;1.90;;
48881;SDS011;57063;51.406;-2.402;2024-03-25T11:02:08;7.03;;;1.27;;
48881;SDS011;57063;51.406;-2.402;2024-03-25T11:04:33;10.00;;;1.40;;
48881;SDS011;57063;51.406;-2.402;2024-03-25T11:07:11;19.13;;;1.98;;
48881;SDS011;57063;51.406;-2.402;2024-03-25T11:09:37;10.90;;;1.30;;
48881;SDS011;57063;51.406;-2.402;2024-03-25T11:12:03;5.47;;;1.13;;
48881;SDS011;57063;51.406;-2.402;2024-03-25T11:14:28;6.90;;;1.60;;
48881;SDS011;57063;51.406;-2.402;2024-03-25T11:16:54;6.20;;;1.50;;
48881;SDS011;57063;51.406;-2.402;2024-03-25T11:19:20;12.13;;;2.40;;
48881;SDS011;57063;51.406;-2.402;2024-03-25T11:21:45;7.15;;;1.55;;
48881;SDS011;57063;51.406;-2.402;2024-03-25T11:24:11;9.80;;;1.60;;
48881;SDS011;57063;51.406;-2.402;2024-03-25T11:26:40;9.52;;;1.65;;
48881;SDS011;57063;51.406;-2.402;2024-03-25T11:29:05;9.85;;;1.52;;
48881;SDS011;57063;51.406;-2.402;2024-03-25T11:31:30;16.47;;;1.97;;
48881;SDS011;57063;51.406;-2.402;2024-03-25T11:34:02;13.63;;;1.40;;
48881;SDS011;57063;51.406;-2.402;2024-03-25T11:36:28;8.70;;;1.48;;
48881;SDS011;57063;51.406;-2.402;2024-03-25T11:39:02;12.35;;;1.45;;
48881;SDS011;57063;51.406;-2.402;2024-03-25T11:41:29;7.88;;;1.33;;
48881;SDS011;57063;51.406;-2.402;2024-03-25T11:43:55;9.52;;;1.85;;
48881;SDS011;57063;51.406;-2.402;2024-03-25T11:46:24;11.60;;;2.40;;
48881;SDS011;57063;51.406;-2.402;2024-03-25T11:48:49;10.73;;;2.03;;
48881;SDS011;57063;51.406;-2.402;2024-03-25T11:51:19;10.18;;;2.17;;
48881;SDS011;57063;51.406;-2.402;2024-03-25T11:53:44;13.75;;;1.77;;
48881;SDS011;57063;51.406;-2.402;2024-03-25T11:56:11;10.93;;;2.27;;
48881;SDS011;57063;51.406;-2.402;2024-03-25T11:58:36;8.10;;;1.77;;
48881;SDS011;57063;51.406;-2.402;2024-03-25T12:01:02;14.52;;;2.88;;
48881;SDS011;57063;51.406;-2.402;2024-03-25T12:03:27;9.20;;;1.90;;
48881;SDS011;57063;51.406;-2.402;2024-03-25T12:05:52;10.88;;;2.35;;
48881;SDS011;57063;51.406;-2.402;2024-03-25T12:08:18;10.00;;;2.45;;
48881;SDS011;57063;51.406;-2.402;2024-03-25T12:10:43;9.63;;;1.70;;
48881;SDS011;57063;51.406;-2.402;2024-03-25T12:13:26;10.55;;;2.10;;
48881;SDS011;57063;51.406;-2.402;2024-03-25T12:15:53;13.75;;;3.38;;
48881;SDS011;57063;51.406;-2.402;2024-03-25T12:18:18;11.13;;;2.47;;
48881;SDS011;57063;51.406;-2.402;2024-03-25T12:20:46;8.30;;;1.75;;
48881;SDS011;57063;51.406;-2.402;2024-03-25T12:23:11;10.93;;;2.08;;
48881;SDS011;57063;51.406;-2.402;2024-03-25T12:25:37;9.40;;;1.55;;
48881;SDS011;57063;51.406;-2.402;2024-03-25T12:28:07;8.82;;;2.10;;
48881;SDS011;57063;51.406;-2.402;2024-03-25T12:30:33;10.38;;;1.98;;
48881;SDS011;57063;51.406;-2.402;2024-03-25T12:32:58;12.70;;;1.70;;
48881;SDS011;57063;51.406;-2.402;2024-03-25T12:35:25;10.23;;;2.50;;
48881;SDS011;57063;51.406;-2.402;2024-03-25T12:37:51;12.13;;;2.70;;
48881;SDS011;57063;51.406;-2.402;2024-03-25T12:40:35;12.48;;;1.98;;
48881;SDS011;57063;51.406;-2.402;2024-03-25T12:43:00;9.60;;;2.03;;
48881;SDS011;57063;51.406;-2.402;2024-03-25T12:45:25;12.90;;;2.10;;
48881;SDS011;57063;51.406;-2.402;2024-03-25T12:47:50;15.10;;;3.07;;
48881;SDS011;57063;51.406;-2.402;2024-03-25T12:50:16;11.75;;;2.65;;
48881;SDS011;57063;51.406;-2.402;2024-03-25T12:52:41;9.55;;;2.22;;
48881;SDS011;57063;51.406;-2.402;2024-03-25T12:55:06;9.03;;;2.47;;
48881;SDS011;57063;51.406;-2.402;2024-03-25T12:57:31;12.77;;;2.83;;
48881;SDS011;57063;51.406;-2.402;2024-03-25T12:59:56;9.67;;;3.00;;
48881;SDS011;57063;51.406;-2.402;2024-03-25T13:02:22;18.48;;;3.05;;
48881;SDS011;57063;51.406;-2.402;2024-03-25T13:04:47;11.52;;;3.20;;
48881;SDS011;57063;51.406;-2.402;2024-03-25T13:07:12;14.00;;;3.97;;
48881;SDS011;57063;51.406;-2.402;2024-03-25T13:09:38;17.08;;;4.00;;
48881;SDS011;57063;51.406;-2.402;2024-03-25T13:12:03;13.63;;;3.50;;
48881;SDS011;57063;51.406;-2.402;2024-03-25T13:14:29;12.27;;;3.50;;
48881;SDS011;57063;51.406;-2.402;2024-03-25T13:16:54;12.80;;;3.25;;
48881;SDS011;57063;51.406;-2.402;2024-03-25T13:19:20;8.90;;;3.22;;
48881;SDS011;57063;51.406;-2.402;2024-03-25T13:21:45;14.33;;;4.33;;
48881;SDS011;57063;51.406;-2.402;2024-03-25T13:24:10;9.73;;;2.85;;
48881;SDS011;57063;51.406;-2.402;2024-03-25T13:26:35;12.10;;;3.00;;
48881;SDS011;57063;51.406;-2.402;2024-03-25T13:29:00;10.02;;;3.35;;
48881;SDS011;57063;51.406;-2.402;2024-03-25T13:31:26;11.35;;;2.88;;
48881;SDS011;57063;51.406;-2.402;2024-03-25T13:33:51;12.55;;;3.03;;
48881;SDS011;57063;51.406;-2.402;2024-03-25T13:36:17;13.88;;;3.97;;
48881;SDS011;57063;51.406;-2.402;2024-03-25T13:38:42;11.10;;;3.33;;
48881;SDS011;57063;51.406;-2.402;2024-03-25T13:41:07;12.23;;;2.55;;
48881;SDS011;57063;51.406;-2.402;2024-03-25T13:43:33;7.13;;;2.15;;
48881;SDS011;57063;51.406;-2.402;2024-03-25T13:45:58;12.38;;;2.22;;
48881;SDS011;57063;51.406;-2.402;2024-03-25T13:48:23;9.45;;;2.00;;
48881;SDS011;57063;51.406;-2.402;2024-03-25T13:50:48;9.40;;;1.70;;
48881;SDS011;57063;51.406;-2.402;2024-03-25T13:53:14;11.88;;;1.48;;
48881;SDS011;57063;51.406;-2.402;2024-03-25T13:55:39;8.17;;;1.43;;
48881;SDS011;57063;51.406;-2.402;2024-03-25T13:58:04;7.18;;;1.55;;
48881;SDS011;57063;51.406;-2.402;2024-03-25T14:00:30;10.05;;;1.77;;
48881;SDS011;57063;51.406;-2.402;2024-03-25T14:02:55;12.30;;;1.58;;
48881;SDS011;57063;51.406;-2.402;2024-03-25T14:05:21;9.35;;;1.52;;
48881;SDS011;57063;51.406;-2.402;2024-03-25T14:07:48;11.68;;;1.73;;
48881;SDS011;57063;51.406;-2.402;2024-03-25T14:10:13;9.35;;;2.72;;
48881;SDS011;57063;51.406;-2.402;2024-03-25T14:12:38;9.32;;;2.08;;
48881;SDS011;57063;51.406;-2.402;2024-03-25T14:15:04;9.07;;;1.77;;
48881;SDS011;57063;51.406;-2.402;2024-03-25T14:17:29;9.00;;;1.63;;